Epiphany, South Dakota
Current Conditions -  °F | °C
As of 10:30 PM on Sunday 25 Jan 2015 (Local Time) from KMDS Reporting Station
Scattered Clouds Scattered Clouds  
Wind Chill: 26°   Ceiling: Unl
Heat Index: 32°   Visibility: 10mi
Dew Point: 32°   Wind: 7mph
Humidity: 100%   Direction: 200°SSW
Pressure: 29.94"   Gusts: NA
Location:  43.8924°N, 97.5502°W
Report Text: KMDS 260430Z AUTO 20006KT 10SM SCT021 00/00 A2994 RMK AO2
Loading
Personal Weather Stations






























Interactive Weather Map New forecast layout! Learn more

10-Day Weather Forecast

Advertisements
Track Severe Weather on mobile